Time;durP1;ratioP1;P1;durP2;ratioP2;P2;SDS_P1;SDS_P2;PMS_P1;PMS_P2;Temp;Humidity;BMP_temperature;BMP_pressure;BME280_temperature;BME280_humidity;BME280_pressure;Samples;Min_cycle;Max_cycle;Signal;HPM_P1;HPM_P2
2023/01/19 00:02:07;;;;;;;;;3.00;3.00;;;;;20.21;59.42;99481.20;110286;1251;19975;-36
2023/01/19 00:04:34;;;;;;;;;2.00;2.00;;;;;20.22;59.19;99489.42;110283;1265;18228;-37
2023/01/19 00:07:04;;;;;;;;;6.00;6.00;;;;;20.22;59.26;99490.70;110321;1251;19328;-35
2023/01/19 00:09:32;;;;;;;;;3.00;3.00;;;;;20.22;59.28;99489.98;110318;1265;20481;-36
2023/01/19 00:11:59;;;;;;;;;3.00;3.00;;;;;20.20;59.16;99493.63;110300;1251;21451;-36
2023/01/19 00:14:26;;;;;;;;;4.00;4.00;;;;;20.20;59.23;99500.41;110309;1249;19300;-36
2023/01/19 00:16:54;;;;;;;;;3.00;3.00;;;;;20.21;59.13;99506.98;110299;1266;22147;-37
2023/01/19 00:19:21;;;;;;;;;4.00;3.00;;;;;20.21;59.04;99509.70;110283;1250;19770;-35
2023/01/19 00:21:48;;;;;;;;;2.00;2.00;;;;;20.20;59.18;99506.19;110300;1250;20289;-35
2023/01/19 00:24:16;;;;;;;;;3.00;3.00;;;;;20.21;59.12;99507.56;110246;1260;20009;-35
2023/01/19 00:26:43;;;;;;;;;2.00;2.00;;;;;20.21;59.33;99508.23;110312;1249;19995;-35
2023/01/19 00:29:10;;;;;;;;;3.00;3.00;;;;;20.21;59.17;99511.71;110322;1250;21875;-35
2023/01/19 00:31:38;;;;;;;;;3.00;3.00;;;;;20.19;59.18;99509.77;110325;1265;18807;-35
2023/01/19 00:34:05;;;;;;;;;2.00;2.00;;;;;20.19;59.22;99503.58;110321;1251;19699;-36
2023/01/19 00:36:32;;;;;;;;;3.00;3.00;;;;;20.19;58.96;99510.79;110230;1265;18946;-34
2023/01/19 00:39:00;;;;;;;;;4.00;4.00;;;;;20.19;59.11;99515.34;110230;1261;21846;-34
2023/01/19 00:44:08;;;;;;;;;4.00;3.00;;;;;20.20;59.11;99521.96;110280;1249;19998;-35
2023/01/19 00:46:36;;;;;;;;;3.00;3.00;;;;;20.19;59.08;99524.38;110328;1250;18562;-35
2023/01/19 00:49:03;;;;;;;;;3.00;3.00;;;;;20.18;59.11;99527.98;110300;1251;19550;-35
2023/01/19 00:51:30;;;;;;;;;4.00;3.00;;;;;20.18;58.92;99534.55;110304;1265;17838;-35
2023/01/19 00:54:03;;;;;;;;;4.00;4.00;;;;;20.18;59.01;99533.13;110324;1250;21351;-35
2023/01/19 00:56:30;;;;;;;;;4.00;4.00;;;;;20.19;58.82;99536.48;110286;1251;19761;-34
2023/01/19 00:58:58;;;;;;;;;4.00;3.00;;;;;20.18;58.80;99539.78;110226;1250;19376;-35
2023/01/19 01:01:25;;;;;;;;;3.00;3.00;;;;;20.18;58.73;99542.34;110338;1265;18713;-35
2023/01/19 01:03:53;;;;;;;;;3.00;3.00;;;;;20.19;58.95;99542.64;110329;1265;21959;-35
2023/01/19 01:06:20;;;;;;;;;3.00;3.00;;;;;20.19;58.82;99543.14;110288;1264;17842;-35
2023/01/19 01:08:47;;;;;;;;;4.00;4.00;;;;;20.18;58.74;99549.41;110303;1251;20039;-34
2023/01/19 01:11:15;;;;;;;;;3.50;3.00;;;;;20.17;58.66;99555.05;110318;1251;19457;-36
2023/01/19 01:13:43;;;;;;;;;3.67;3.00;;;;;20.18;58.75;99563.02;110273;1265;19270;-35
2023/01/19 01:16:10;;;;;;;;;3.00;3.00;;;;;20.18;58.65;99565.78;110295;1265;21575;-35
2023/01/19 01:18:37;;;;;;;;;4.00;4.00;;;;;20.18;58.81;99570.89;110311;1265;18266;-35
2023/01/19 01:21:05;;;;;;;;;3.00;3.00;;;;;20.17;58.69;99568.41;110235;1251;18737;-37
2023/01/19 01:23:32;;;;;;;;;3.00;3.00;;;;;20.17;58.72;99566.11;110100;1251;19843;-37
2023/01/19 01:25:59;;;;;;;;;4.00;4.00;;;;;20.16;58.83;99570.73;110100;1257;19750;-36
2023/01/19 01:28:26;;;;;;;;;2.00;2.00;;;;;20.16;58.78;99575.44;110199;1249;19301;-35
2023/01/19 01:30:54;;;;;;;;;3.00;3.00;;;;;20.17;58.76;99583.19;110348;1265;18805;-36
2023/01/19 01:33:21;;;;;;;;;3.00;3.00;;;;;20.16;58.56;99583.60;110332;1250;19609;-35
2023/01/19 01:35:48;;;;;;;;;2.67;2.67;;;;;20.16;58.69;99579.08;110320;1250;19332;-35
2023/01/19 01:38:16;;;;;;;;;3.00;3.00;;;;;20.16;58.71;99576.72;110321;1258;19913;-35
2023/01/19 01:40:43;;;;;;;;;5.00;4.00;;;;;20.15;58.73;99577.21;110307;1250;22031;-36
2023/01/19 01:43:10;;;;;;;;;3.50;3.00;;;;;20.16;58.55;99579.69;110352;1265;17897;-34
2023/01/19 01:45:38;;;;;;;;;2.50;2.50;;;;;20.15;58.40;99582.29;110316;1252;18584;-37
2023/01/19 01:48:06;;;;;;;;;2.50;2.50;;;;;20.15;58.60;99591.61;110345;1250;19634;-36
2023/01/19 01:50:33;;;;;;;;;4.00;4.00;;;;;20.15;58.45;99595.59;110247;1257;17741;-35
2023/01/19 01:53:00;;;;;;;;;3.00;3.00;;;;;20.14;58.39;99603.04;110331;1265;18569;-36
2023/01/19 01:55:28;;;;;;;;;3.50;3.00;;;;;20.14;58.41;99600.90;110258;1251;20774;-35
2023/01/19 01:57:56;;;;;;;;;;;;;;;20.13;58.60;99603.54;110133;1250;19464;-36
2023/01/19 02:00:23;;;;;;;;;3.00;3.00;;;;;20.13;58.32;99603.41;110292;1265;19696;-35
2023/01/19 02:02:50;;;;;;;;;4.00;3.00;;;;;20.13;58.25;99603.20;110332;1257;19099;-35
2023/01/19 02:05:18;;;;;;;;;4.00;3.00;;;;;20.13;58.46;99609.64;110149;1265;17893;-35
2023/01/19 02:13:19;;;;;;;;;3.00;3.00;;;;;20.13;58.25;99607.94;110329;1251;17881;-34
2023/01/19 02:15:46;;;;;;;;;4.00;4.00;;;;;20.13;58.33;99605.00;110296;1251;19961;-34
2023/01/19 02:18:14;;;;;;;;;3.00;3.00;;;;;20.13;58.22;99604.08;110317;1260;18182;-35
2023/01/19 02:20:41;;;;;;;;;4.00;3.00;;;;;20.13;58.19;99605.88;110214;1249;20342;-34
2023/01/19 02:23:08;;;;;;;;;4.00;3.67;;;;;20.14;58.42;99607.85;110272;1250;20399;-34
2023/01/19 02:25:36;;;;;;;;;4.00;3.00;;;;;20.14;58.15;99606.60;110311;1265;18127;-35
2023/01/19 02:28:03;;;;;;;;;3.00;3.00;;;;;20.12;58.38;99604.08;110274;1251;19393;-35
2023/01/19 02:30:31;;;;;;;;;3.00;3.00;;;;;20.12;58.31;99609.19;110282;1251;20013;-35
2023/01/19 02:32:59;;;;;;;;;4.00;4.00;;;;;20.13;58.42;99611.83;110261;1251;18166;-36
2023/01/19 02:35:26;;;;;;;;;4.00;3.00;;;;;20.13;58.24;99612.03;110188;1265;17913;-35
2023/01/19 02:37:53;;;;;;;;;3.00;3.00;;;;;20.14;58.20;99612.66;110227;1251;19965;-37
2023/01/19 02:40:21;;;;;;;;;3.00;3.00;;;;;20.12;58.39;99610.40;110197;1250;20075;-34
2023/01/19 02:42:48;;;;;;;;;3.00;3.00;;;;;20.12;58.21;99617.64;110269;1250;19259;-34
2023/01/19 02:45:15;;;;;;;;;3.00;3.00;;;;;20.12;58.18;99614.20;110157;1265;18692;-35
2023/01/19 02:47:43;;;;;;;;;4.00;4.00;;;;;20.11;58.23;99608.60;110142;1264;18879;-34
2023/01/19 02:50:10;;;;;;;;;3.67;3.00;;;;;20.12;58.27;99611.32;110237;1257;19216;-35
2023/01/19 02:52:37;;;;;;;;;4.00;3.00;;;;;20.12;58.13;99612.58;110268;1264;18535;-35
2023/01/19 02:55:05;;;;;;;;;3.00;3.00;;;;;20.11;58.09;99606.09;110248;1266;19555;-35
2023/01/19 02:57:32;;;;;;;;;4.00;4.00;;;;;20.11;58.16;99602.07;110251;1251;19375;-34
2023/01/19 02:59:59;;;;;;;;;4.00;4.00;;;;;20.12;58.19;99602.83;110331;1250;20140;-35
2023/01/19 03:02:27;;;;;;;;;3.00;3.00;;;;;20.11;58.18;99602.95;110315;1251;19603;-34
2023/01/19 03:04:55;;;;;;;;;4.00;3.00;;;;;20.12;57.95;99601.66;110300;1251;19127;-35
2023/01/19 03:07:22;;;;;;;;;3.00;3.00;;;;;20.11;57.99;99605.50;110268;1251;20111;-35
2023/01/19 03:09:49;;;;;;;;;4.00;3.00;;;;;20.11;58.21;99607.34;110325;1250;19691;-35
2023/01/19 03:12:17;;;;;;;;;5.00;4.00;;;;;20.10;57.92;99609.63;110286;1250;20626;-34
2023/01/19 03:14:44;;;;;;;;;3.00;3.00;;;;;20.11;58.13;99608.26;110317;1265;18550;-36
2023/01/19 03:17:12;;;;;;;;;3.00;3.00;;;;;20.11;57.88;99612.07;110314;1260;19590;-34
2023/01/19 03:19:39;;;;;;;;;3.00;3.00;;;;;20.10;58.03;99606.34;110317;1264;17855;-36
2023/01/19 03:22:06;;;;;;;;;3.00;3.00;;;;;20.10;58.17;99609.41;110303;1265;21156;-35
2023/01/19 03:24:34;;;;;;;;;3.00;3.00;;;;;20.10;57.78;99608.37;110270;1251;19575;-36
2023/01/19 03:27:01;;;;;;;;;3.67;3.00;;;;;20.10;57.88;99615.61;110311;1257;19138;-35
2023/01/19 03:29:29;;;;;;;;;3.00;3.00;;;;;20.10;58.05;99613.23;110319;1251;19929;-36
2023/01/19 03:31:56;;;;;;;;;7.00;4.00;;;;;20.10;57.70;99611.30;110323;1251;19591;-35
2023/01/19 03:34:23;;;;;;;;;4.00;4.00;;;;;20.10;58.01;99614.32;110286;1250;22117;-34
2023/01/19 03:36:50;;;;;;;;;6.00;4.00;;;;;20.09;57.77;99616.56;110229;1257;18564;-34
2023/01/19 03:39:18;;;;;;;;;4.00;3.00;;;;;20.09;57.90;99620.97;110207;1264;19439;-38
2023/01/19 03:41:45;;;;;;;;;4.00;3.00;;;;;20.10;58.02;99626.30;110301;1264;17929;-35
2023/01/19 03:44:12;;;;;;;;;3.00;3.00;;;;;20.10;58.00;99628.16;110314;1265;18565;-34
2023/01/19 03:46:40;;;;;;;;;3.00;3.00;;;;;20.09;57.71;99626.44;110290;1265;19624;-36
2023/01/19 03:49:08;;;;;;;;;3.00;3.00;;;;;20.09;57.86;99625.47;110321;1265;17897;-35
2023/01/19 03:51:35;;;;;;;;;3.50;3.00;;;;;20.09;57.87;99623.38;110312;1251;19928;-35
2023/01/19 03:54:03;;;;;;;;;6.00;4.00;;;;;20.09;57.78;99621.92;110350;1249;18242;-35
2023/01/19 03:56:30;;;;;;;;;3.00;3.00;;;;;20.09;57.88;99620.30;110279;1265;17949;-35
2023/01/19 03:58:57;;;;;;;;;3.00;3.00;;;;;20.09;57.85;99622.64;110313;1251;20140;-36
2023/01/19 04:01:25;;;;;;;;;3.00;3.00;;;;;20.09;57.62;99627.39;110279;1266;22028;-35
2023/01/19 04:03:52;;;;;;;;;3.33;3.00;;;;;20.09;57.87;99629.33;110321;1251;19330;-35
2023/01/19 04:06:19;;;;;;;;;4.00;3.00;;;;;20.09;57.76;99629.04;110305;1249;20008;-35
2023/01/19 04:08:47;;;;;;;;;3.00;3.00;;;;;20.09;57.65;99632.08;110300;1251;19646;-35
2023/01/19 04:11:14;;;;;;;;;3.00;3.00;;;;;20.08;57.79;99635.10;110328;1265;17871;-35
2023/01/19 04:13:42;;;;;;;;;4.00;3.00;;;;;20.09;57.78;99637.91;110302;1251;21113;-35
2023/01/19 04:16:09;;;;;;;;;4.00;4.00;;;;;20.09;57.76;99639.54;110316;1251;19578;-35
2023/01/19 04:18:37;;;;;;;;;3.00;3.00;;;;;20.09;57.57;99638.98;110347;1250;19189;-35
2023/01/19 04:21:04;;;;;;;;;3.00;3.00;;;;;20.08;57.71;99633.67;110316;1251;21596;-37
2023/01/19 04:23:32;;;;;;;;;3.00;3.00;;;;;20.09;57.81;99629.73;110320;1250;19582;-35
2023/01/19 04:25:59;;;;;;;;;3.00;3.00;;;;;20.08;57.81;99625.05;110317;1265;18038;-36
2023/01/19 04:28:27;;;;;;;;;4.00;4.00;;;;;20.08;57.48;99628.73;110285;1250;18933;-35
2023/01/19 04:30:54;;;;;;;;;3.00;3.00;;;;;20.07;57.78;99624.21;110298;1251;19623;-36
2023/01/19 04:33:22;;;;;;;;;3.00;3.00;;;;;20.06;57.66;99630.62;110314;1250;19337;-35
2023/01/19 04:35:49;;;;;;;;;3.00;3.00;;;;;20.07;57.61;99634.17;110230;1259;19901;-35
2023/01/19 04:38:16;;;;;;;;;3.00;3.00;;;;;20.07;57.61;99638.48;110103;1257;20887;-35
2023/01/19 04:40:44;;;;;;;;;3.00;3.00;;;;;20.08;57.71;99642.13;110140;1251;19275;-38
2023/01/19 04:43:11;;;;;;;;;4.00;3.50;;;;;20.09;57.63;99643.17;110315;1251;21884;-35
2023/01/19 04:45:38;;;;;;;;;7.00;4.00;;;;;20.09;57.68;99644.18;110278;1250;19639;-35
2023/01/19 04:48:05;;;;;;;;;4.00;4.00;;;;;20.09;57.54;99648.06;110284;1250;19335;-36
2023/01/19 04:50:33;;;;;;;;;3.00;3.00;;;;;20.09;57.57;99650.95;110312;1265;18548;-35
2023/01/19 04:53:00;;;;;;;;;7.00;6.00;;;;;20.08;57.48;99658.09;110295;1250;19635;-35
2023/01/19 04:55:28;;;;;;;;;6.00;4.00;;;;;20.08;57.31;99659.41;110226;1251;131355;-35
2023/01/19 04:57:55;;;;;;;;;6.00;6.00;;;;;20.08;57.44;99659.66;110325;1257;19908;-35
2023/01/19 05:00:23;;;;;;;;;6.00;6.00;;;;;20.07;57.46;99660.75;110315;1265;18164;-35
2023/01/19 05:02:50;;;;;;;;;6.00;6.00;;;;;20.08;57.25;99662.42;110296;1265;19220;-35
2023/01/19 05:05:18;;;;;;;;;6.00;5.00;;;;;20.08;57.23;99661.45;110328;1265;18654;-35
2023/01/19 05:07:45;;;;;;;;;7.00;6.00;;;;;20.08;57.06;99665.77;110265;1250;21613;-35
2023/01/19 05:10:13;;;;;;;;;8.00;6.00;;;;;20.07;57.19;99668.58;110281;1250;19519;-35
2023/01/19 05:12:40;;;;;;;;;6.00;4.00;;;;;20.07;57.11;99665.98;110272;1264;20133;-37
2023/01/19 05:15:08;;;;;;;;;6.00;6.00;;;;;20.07;57.24;99656.02;110278;1265;19555;-34
2023/01/19 05:17:35;;;;;;;;;6.67;6.00;;;;;20.08;57.04;99657.44;110287;1252;19219;-34
2023/01/19 05:20:03;;;;;;;;;6.00;5.00;;;;;20.08;56.91;99662.38;110283;1265;19878;-33
2023/01/19 05:22:30;;;;;;;;;6.00;6.00;;;;;20.07;56.84;99668.15;110278;1250;19511;-34
2023/01/19 05:24:58;;;;;;;;;6.00;6.00;;;;;20.07;57.00;99674.72;110304;1250;19297;-34
2023/01/19 05:27:25;;;;;;;;;4.00;4.00;;;;;20.06;56.83;99682.46;110277;1265;18535;-34
2023/01/19 05:29:52;;;;;;;;;6.00;6.00;;;;;20.06;56.76;99685.27;110332;1265;20421;-34
2023/01/19 05:32:20;;;;;;;;;6.00;6.00;;;;;20.06;56.75;99688.73;110260;1249;21469;-34
2023/01/19 05:34:47;;;;;;;;;6.50;6.00;;;;;20.05;56.90;99691.70;110313;1251;20036;-34
2023/01/19 05:37:14;;;;;;;;;6.00;5.00;;;;;20.05;56.96;99692.41;110313;1251;19605;-35
2023/01/19 05:39:42;;;;;;;;;9.00;6.67;;;;;20.05;56.81;99692.83;110276;1265;19342;-34
2023/01/19 05:42:09;;;;;;;;;7.00;6.00;;;;;20.04;56.84;99695.66;110298;1250;19970;-38
2023/01/19 05:44:36;;;;;;;;;6.00;6.00;;;;;20.03;56.77;99694.98;110311;1260;19473;-35
2023/01/19 05:47:04;;;;;;;;;6.00;5.00;;;;;20.04;56.75;99697.83;110324;1250;17932;-35
2023/01/19 05:49:31;;;;;;;;;6.00;6.00;;;;;20.06;56.80;99703.27;110307;1265;18539;-35
2023/01/19 05:51:58;;;;;;;;;6.00;6.00;;;;;20.05;57.02;99707.11;110195;1251;19443;-34
2023/01/19 05:54:26;;;;;;;;;5.33;4.00;;;;;20.05;56.93;99716.89;110274;1250;19175;-35
2023/01/19 05:56:53;;;;;;;;;4.00;4.00;;;;;20.05;57.05;99726.75;110268;1265;18662;-35
2023/01/19 05:59:22;;;;;;;;;4.00;4.00;;;;;20.05;56.82;99731.20;110281;1266;21588;-35
2023/01/19 06:01:50;;;;;;;;;5.00;5.00;;;;;20.06;57.11;99738.45;110279;1265;17871;-35
2023/01/19 06:04:17;;;;;;;;;4.00;4.00;;;;;20.04;57.01;99743.15;110316;1251;20033;-35
2023/01/19 06:06:45;;;;;;;;;3.50;3.50;;;;;20.03;56.87;99746.88;110291;1265;18167;-35
2023/01/19 06:09:12;;;;;;;;;6.00;4.00;;;;;20.05;56.97;99751.24;110307;1250;20328;-34
2023/01/19 06:11:40;;;;;;;;;6.00;6.00;;;;;20.04;57.02;99751.14;110281;1250;20007;-36
2023/01/19 06:14:07;;;;;;;;;4.00;4.00;;;;;20.04;56.80;99752.81;110283;1264;18354;-35
2023/01/19 06:16:34;;;;;;;;;4.00;4.00;;;;;20.03;57.17;99757.91;110277;1251;19379;-35
2023/01/19 06:19:02;;;;;;;;;9.50;6.00;;;;;20.04;56.93;99761.52;110286;1251;21849;-35
2023/01/19 06:21:29;;;;;;;;;3.50;3.00;;;;;20.02;57.12;99763.85;110330;1250;19532;-36
2023/01/19 06:23:56;;;;;;;;;4.00;4.00;;;;;20.04;56.94;99778.05;110307;1250;19320;-35
2023/01/19 06:26:24;;;;;;;;;4.00;4.00;;;;;20.02;57.03;99781.05;110328;1265;18738;-34
2023/01/19 06:28:52;;;;;;;;;6.50;5.00;;;;;20.02;56.98;99785.06;110334;1250;19611;-34
2023/01/19 06:31:19;;;;;;;;;4.00;4.00;;;;;20.02;56.97;99793.09;110345;1265;22203;-35
2023/01/19 06:33:46;;;;;;;;;6.00;6.00;;;;;20.02;56.94;99789.83;110317;1251;20246;-35
2023/01/19 06:36:14;;;;;;;;;3.00;3.00;;;;;20.01;57.14;99792.39;110318;1264;18181;-38
2023/01/19 06:38:41;;;;;;;;;3.50;3.50;;;;;20.01;57.05;99789.58;110338;1251;19408;-34
2023/01/19 06:41:08;;;;;;;;;4.00;4.00;;;;;20.01;56.92;99798.41;110328;1250;21197;-34
2023/01/19 06:43:36;;;;;;;;;3.00;3.00;;;;;20.01;56.90;99814.52;110330;1251;19672;-34
2023/01/19 06:46:03;;;;;;;;;4.00;4.00;;;;;20.01;56.88;99820.34;110346;1265;19162;-35
2023/01/19 06:48:30;;;;;;;;;4.00;4.00;;;;;20.01;57.02;99826.20;110310;1265;18564;-35
2023/01/19 06:50:58;;;;;;;;;4.00;4.00;;;;;20.02;56.74;99829.92;110326;1251;19752;-33
2023/01/19 06:53:26;;;;;;;;;7.00;6.00;;;;;20.01;57.04;99838.54;110325;1251;19464;-35
2023/01/19 06:55:54;;;;;;;;;4.00;4.00;;;;;20.00;57.06;99845.83;110336;1265;18969;-35
2023/01/19 06:58:21;;;;;;;;;3.50;3.50;;;;;20.00;56.84;99845.66;110314;1265;18152;-35
2023/01/19 07:00:49;;;;;;;;;4.00;3.00;;;;;20.02;56.99;99848.92;110325;1257;20586;-36
2023/01/19 07:03:16;;;;;;;;;6.50;5.00;;;;;20.05;57.05;99846.36;110295;1264;18834;-35
2023/01/19 07:05:43;;;;;;;;;6.00;6.00;;;;;20.09;56.81;99840.47;110288;1250;19657;-34
2023/01/19 07:08:11;;;;;;;;;3.50;3.50;;;;;20.11;57.23;99842.58;110239;1251;20461;-34
2023/01/19 07:10:39;;;;;;;;;4.00;4.00;;;;;20.10;57.40;99850.30;110134;1252;19978;-35
2023/01/19 07:13:06;;;;;;;;;4.00;4.00;;;;;20.09;57.51;99850.91;110226;1251;19617;-35
2023/01/19 07:15:33;;;;;;;;;4.00;4.00;;;;;20.09;57.77;99858.53;110295;1250;19366;-34
2023/01/19 07:18:04;;;;;;;;;5.00;5.00;;;;;20.10;57.78;99859.02;110129;1257;19933;-35
2023/01/19 07:20:32;;;;;;;;;6.00;4.00;;;;;20.08;57.61;99859.40;110279;1251;19607;-35
2023/01/19 07:22:59;;;;;;;;;4.00;4.00;;;;;20.07;58.01;99862.75;110293;1251;19956;-39
2023/01/19 07:25:26;;;;;;;;;4.00;4.00;;;;;20.04;57.85;99867.86;110266;1250;18556;-35
2023/01/19 07:27:54;;;;;;;;;6.00;4.00;;;;;20.04;57.91;99863.72;110225;1251;21048;-38
2023/01/19 07:30:21;;;;;;;;;4.00;3.33;;;;;20.04;57.98;99864.30;110094;1257;19640;-35
2023/01/19 07:32:48;;;;;;;;;4.00;4.00;;;;;20.04;58.01;99860.50;110311;1265;18456;-34
2023/01/19 07:35:16;;;;;;;;;3.33;3.33;;;;;20.04;57.89;99858.64;110274;1251;18325;-35
2023/01/19 07:37:43;;;;;;;;;6.00;6.00;;;;;20.05;57.71;99858.41;110156;1250;19479;-34
2023/01/19 07:40:10;;;;;;;;;4.00;4.00;;;;;20.04;57.93;99857.36;110283;1251;20187;-35
2023/01/19 07:42:38;;;;;;;;;4.00;4.00;;;;;20.05;57.76;99852.98;110305;1265;19813;-34
2023/01/19 07:45:05;;;;;;;;;4.00;4.00;;;;;20.06;57.77;99857.68;110256;1251;19339;-33
2023/01/19 07:47:32;;;;;;;;;4.00;4.00;;;;;20.06;57.80;99862.08;110202;1250;21937;-34
2023/01/19 07:50:00;;;;;;;;;4.00;4.00;;;;;20.04;57.84;99861.35;110161;1260;19453;-34
2023/01/19 07:52:27;;;;;;;;;6.00;4.00;;;;;20.03;57.99;99865.71;110247;1264;17921;-35
2023/01/19 07:54:54;;;;;;;;;6.67;5.33;;;;;20.02;58.00;99873.02;110261;1257;18546;-35
2023/01/19 07:57:22;;;;;;;;;4.00;4.00;;;;;20.03;57.89;99876.34;110246;1264;19058;-34
2023/01/19 07:59:50;;;;;;;;;3.00;3.00;;;;;20.03;57.87;99874.74;110245;1259;20266;-35
2023/01/19 08:02:17;;;;;;;;;6.00;5.00;;;;;20.04;57.80;99874.05;110283;1251;19950;-34
2023/01/19 08:04:45;;;;;;;;;4.00;4.00;;;;;20.04;57.91;99878.31;110290;1258;19623;-36
2023/01/19 08:07:12;;;;;;;;;4.00;4.00;;;;;20.03;57.95;99883.45;110290;1251;19443;-35
2023/01/19 08:09:39;;;;;;;;;6.00;6.00;;;;;20.03;57.61;99880.65;110280;1250;19967;-34
2023/01/19 08:12:07;;;;;;;;;4.00;3.00;;;;;20.05;57.73;99875.48;110130;1250;21532;-34
2023/01/19 08:14:34;;;;;;;;;37.00;30.00;;;;;20.07;57.72;99880.82;110250;1264;17904;-36
2023/01/19 08:17:02;;;;;;;;;86.00;67.50;;;;;20.10;57.83;99884.38;110296;1260;20054;-33
2023/01/19 08:19:29;;;;;;;;;80.00;60.00;;;;;20.12;58.11;99883.23;110000;1257;18549;-35
2023/01/19 08:21:57;;;;;;;;;64.00;48.00;;;;;20.12;58.24;99888.42;110176;1251;21938;-34
2023/01/19 08:24:27;;;;;;;;;54.00;45.00;;;;;20.10;58.36;99885.88;110242;1265;18588;-39
2023/01/19 13:32:08;;;;;;;;;7.00;7.00;;;;;20.39;59.89;99908.27;109974;1260;21577;-35
2023/01/19 13:34:35;;;;;;;;;9.00;9.00;;;;;20.37;59.70;99909.72;110184;1251;19319;-35
2023/01/19 13:37:04;;;;;;;;;8.00;8.00;;;;;20.40;59.64;99912.72;110199;1265;18478;-35
2023/01/19 13:39:32;;;;;;;;;8.67;8.67;;;;;20.41;59.67;99908.42;110102;1265;18149;-35
2023/01/19 13:41:59;;;;;;;;;9.33;8.33;;;;;20.41;59.71;99911.86;110243;1249;19306;-35
2023/01/19 13:44:27;;;;;;;;;10.00;7.00;;;;;20.40;59.76;99910.13;110141;1257;18896;-35
2023/01/19 13:46:55;;;;;;;;;7.50;7.00;;;;;20.40;59.66;99905.73;110132;1265;18172;-36
2023/01/19 13:49:22;;;;;;;;;7.50;7.00;;;;;20.41;59.92;99910.06;110143;1265;17903;-34
2023/01/19 13:51:49;;;;;;;;;9.00;7.00;;;;;20.43;60.22;99910.49;110219;1264;18524;-35
2023/01/19 13:54:17;;;;;;;;;8.00;8.00;;;;;20.42;60.31;99915.30;110242;1250;19215;-34
2023/01/19 13:56:44;;;;;;;;;8.00;7.00;;;;;20.41;60.19;99919.58;110238;1250;21968;-36
2023/01/19 13:59:11;;;;;;;;;8.00;5.67;;;;;20.40;60.29;99918.14;110233;1264;18583;-35
2023/01/19 14:01:39;;;;;;;;;11.00;10.00;;;;;20.39;60.27;99923.34;110272;1251;19780;-35
2023/01/19 14:04:06;;;;;;;;;5.00;5.00;;;;;20.38;60.25;99921.98;110254;1260;19364;-34
2023/01/19 14:06:33;;;;;;;;;10.00;8.00;;;;;20.38;60.18;99923.55;110265;1265;18610;-34
2023/01/19 14:09:01;;;;;;;;;8.00;8.00;;;;;20.39;59.94;99922.39;110230;1260;20419;-35
2023/01/19 14:11:28;;;;;;;;;5.00;5.00;;;;;20.39;60.15;99918.91;110265;1250;19675;-34
2023/01/19 14:13:55;;;;;;;;;7.00;7.00;;;;;20.43;60.34;99921.84;110295;1265;18582;-35
2023/01/19 14:16:23;;;;;;;;;11.00;8.00;;;;;20.44;60.36;99925.21;110280;1265;19562;-34
2023/01/19 14:18:51;;;;;;;;;8.00;8.00;;;;;20.46;60.26;99931.64;110250;1264;18083;-34
2023/01/19 14:21:18;;;;;;;;;7.00;7.00;;;;;20.47;60.30;99930.50;110309;1250;20003;-34
2023/01/19 14:23:45;;;;;;;;;5.00;5.00;;;;;20.52;60.49;99932.27;110261;1265;19609;-36
2023/01/19 14:26:13;;;;;;;;;7.33;7.00;;;;;20.56;60.56;99939.84;110268;1251;19276;-35
2023/01/19 14:28:41;;;;;;;;;5.00;5.00;;;;;20.59;60.57;99944.19;110270;1251;22062;-35
2023/01/19 14:31:08;;;;;;;;;7.00;7.00;;;;;20.61;60.87;99943.83;110244;1250;19875;-35
2023/01/19 14:33:35;;;;;;;;;9.33;7.67;;;;;20.59;60.92;99943.10;110239;1266;21756;-35
2023/01/19 14:36:03;;;;;;;;;10.50;8.00;;;;;20.61;61.30;99945.58;110268;1265;18582;-34
2023/01/19 14:38:30;;;;;;;;;7.00;6.00;;;;;20.63;61.06;99949.67;110254;1251;19672;-35
2023/01/19 14:40:57;;;;;;;;;9.33;7.00;;;;;20.65;61.27;99945.75;110103;1249;17853;-35
2023/01/19 14:43:27;;;;;;;;;8.00;7.00;;;;;20.66;61.43;99948.15;110104;1265;18583;-35
2023/01/19 14:45:54;;;;;;;;;8.00;7.00;;;;;20.72;62.00;99952.31;110239;1251;19602;-36
2023/01/19 14:48:22;;;;;;;;;5.00;5.00;;;;;20.75;62.54;99959.08;110230;1265;17915;-34
2023/01/19 14:50:49;;;;;;;;;9.00;7.50;;;;;20.74;62.66;99957.35;110143;1257;22005;-35
2023/01/19 14:53:17;;;;;;;;;8.00;7.00;;;;;20.77;62.96;99957.92;110234;1257;19554;-34
2023/01/19 14:55:44;;;;;;;;;7.00;7.00;;;;;20.77;63.57;99958.02;110264;1251;19314;-35
2023/01/19 14:58:11;;;;;;;;;9.33;7.00;;;;;20.75;64.18;99961.73;110282;1250;20064;-35
2023/01/19 15:00:39;;;;;;;;;8.00;8.00;;;;;20.77;64.49;99960.27;110261;1257;22554;-36
2023/01/19 15:03:08;;;;;;;;;7.50;7.00;;;;;20.74;64.46;99953.73;110257;1251;19436;-35
2023/01/19 15:05:36;;;;;;;;;5.00;5.00;;;;;20.72;64.45;99956.84;110196;1250;22205;-35
2023/01/19 15:08:03;;;;;;;;;7.00;7.00;;;;;20.70;64.00;99956.84;110160;1249;22416;-34
2023/01/19 15:10:30;;;;;;;;;10.00;8.00;;;;;20.66;63.58;99957.89;110131;1251;19395;-37
2023/01/19 15:12:58;;;;;;;;;5.00;5.00;;;;;20.64;63.50;99964.44;110219;1251;19982;-35
2023/01/19 15:15:25;;;;;;;;;7.00;7.00;;;;;20.64;63.53;99965.55;110166;1254;21377;-35
2023/01/19 15:17:52;;;;;;;;;8.00;8.00;;;;;20.65;63.42;99966.98;110136;1250;20274;-34
2023/01/19 15:20:20;;;;;;;;;8.00;7.00;;;;;20.65;63.16;99964.69;110297;1250;18748;-35
2023/01/19 15:22:47;;;;;;;;;7.00;7.00;;;;;20.65;63.19;99966.40;110273;1257;22232;-36
2023/01/19 15:27:50;;;;;;;;;7.00;7.00;;;;;20.62;62.94;99962.80;110205;1260;18531;-35
2023/01/19 15:30:18;;;;;;;;;5.00;5.00;;;;;20.63;62.73;99964.65;110164;1265;18128;-34
2023/01/19 15:32:45;;;;;;;;;7.33;5.67;;;;;20.63;62.54;99968.27;110160;1251;20467;-35
2023/01/19 15:35:12;;;;;;;;;8.00;7.00;;;;;20.63;62.73;99972.36;110199;1265;18570;-34
2023/01/19 15:37:39;;;;;;;;;8.00;7.00;;;;;20.63;62.84;99976.27;110204;1251;19565;-35
2023/01/19 15:40:07;;;;;;;;;8.00;7.00;;;;;20.63;62.63;99974.73;110167;1254;21241;-34
2023/01/19 15:42:43;;;;;;;;;5.00;5.00;;;;;20.64;62.35;99975.94;110327;1256;18518;-37
2023/01/19 15:45:10;;;;;;;;;7.50;7.00;;;;;20.67;62.29;99979.19;110241;1260;23134;-34
2023/01/19 15:47:37;;;;;;;;;5.00;5.00;;;;;20.69;62.34;99987.17;110113;1250;17930;-34
2023/01/19 15:50:05;;;;;;;;;7.00;7.00;;;;;20.72;62.53;99988.67;110252;1250;21747;-34
2023/01/19 15:52:32;;;;;;;;;8.00;7.00;;;;;20.78;62.34;99992.75;110229;1264;18179;-37
2023/01/19 15:54:59;;;;;;;;;25.00;24.50;;;;;20.74;62.33;99994.21;110276;1250;19294;-35
2023/01/19 15:57:27;;;;;;;;;76.00;58.00;;;;;20.71;62.16;99997.50;110228;1260;22116;-35
2023/01/19 15:59:54;;;;;;;;;100.00;69.50;;;;;20.72;62.36;99999.02;110167;1248;20112;-36
2023/01/19 16:02:22;;;;;;;;;90.50;65.50;;;;;20.71;62.19;100000.60;111072;1250;18515;-41
2023/01/19 16:15:50;;;;;;;;;62.00;48.00;;;;;20.72;62.25;100009.52;89023;1266;20214;-37
2023/01/19 16:20:42;;;;;;;;;50.00;41.00;;;;;20.71;62.21;100008.73;111484;1253;17221;-33
2023/01/19 16:23:10;;;;;;;;;47.00;38.50;;;;;20.70;62.43;100008.89;111808;1268;18592;-33
2023/01/19 16:25:37;;;;;;;;;42.00;33.00;;;;;20.73;62.36;100012.10;111518;1253;19558;-33
2023/01/19 16:30:29;;;;;;;;;35.00;29.00;;;;;20.77;62.40;100018.64;111708;1260;18094;-34
2023/01/19 16:32:57;;;;;;;;;25.50;23.50;;;;;20.78;62.52;100020.36;111653;1266;18161;-33
2023/01/19 16:35:24;;;;;;;;;24.00;23.00;;;;;20.77;62.54;100023.04;111619;1266;18585;-36
2023/01/19 16:37:51;;;;;;;;;29.50;26.50;;;;;20.75;62.50;100013.55;111567;1266;19963;-33
2023/01/19 16:40:19;;;;;;;;;32.00;27.50;;;;;20.75;62.76;100012.38;111678;1266;19699;-34
2023/01/19 16:42:46;;;;;;;;;125.33;118.00;;;;;20.77;62.99;100017.59;111585;1260;18569;-34
2023/01/19 16:45:14;;;;;;;;;118.50;109.00;;;;;20.77;63.34;100016.84;111701;1267;18622;-33
2023/01/19 16:47:41;;;;;;;;;108.00;94.00;;;;;20.78;63.48;100016.25;111554;1254;19925;-33
2023/01/19 16:50:09;;;;;;;;;;;;;;;20.77;63.31;100011.64;111576;1253;19972;-32
2023/01/19 16:52:36;;;;;;;;;78.00;64.00;;;;;20.75;63.37;100009.39;111537;1251;20432;-34
2023/01/19 16:55:07;;;;;;;;;73.00;61.00;;;;;20.74;63.54;100012.52;111415;1250;213361;-34
2023/01/19 16:57:35;;;;;;;;;76.50;62.00;;;;;20.73;63.67;100022.45;111697;1266;18532;-33